This is the latest recevied weather packets stored in our database for station/object EA2CW-13. If no packets are shown the sender has not sent any weather packets the latest 10 day(s).
| Time | Temp. | Humidity | Pressure | Rain* | Wind** | Luminosity | Snow |
|---|---|---|---|---|---|---|---|
| 1777673294 | 20.56° C | 71% | 1053.4 hPa | - | - | 0 W/m² | - |
| 1777672358 | 21.11° C | 69% | 1053.4 hPa | - | - | 0 W/m² | - |
| 1777671422 | 21.11° C | 67% | 1053.7 hPa | - | - | 0 W/m² | - |
| 1777670486 | 22.22° C | 63% | 1053.7 hPa | - | - | 0 W/m² | - |
| 1777669550 | 22.22° C | 60% | 1053.7 hPa | - | - | 0 W/m² | - |
| 1777668614 | 22.78° C | 57% | 1053.5 hPa | - | - | 0 W/m² | - |
| 1777667678 | 22.78° C | 55% | 1053.5 hPa | - | - | 0 W/m² | - |
| 1777666742 | 23.33° C | 54% | 1053.3 hPa | - | - | 0 W/m² | - |
| 1777665806 | 23.33° C | 52% | 1053 hPa | - | - | 0 W/m² | - |
| 1777664871 | 23.89° C | 50% | 1052.9 hPa | - | - | 0 W/m² | - |
| 1777663935 | 24.44° C | 50% | 1052.7 hPa | - | - | 0 W/m² | - |
| 1777662999 | 24.44° C | 49% | 1052.6 hPa | - | - | 0 W/m² | - |
| 1777662063 | 25.56° C | 47% | 1052.4 hPa | - | - | 2 W/m² | - |
| 1777661127 | 26.11° C | 46% | 1052.3 hPa | - | - | 4 W/m² | - |
| 1777660191 | 26.67° C | 44% | 1052.2 hPa | - | - | 6 W/m² | - |
| 1777659255 | 26.67° C | 42% | 1052.3 hPa | - | - | 11 W/m² | - |
| 1777658319 | 28.33° C | 40% | 1052.1 hPa | - | - | 20 W/m² | - |
| 1777657383 | 28.89° C | 38% | 1052.1 hPa | - | - | 24 W/m² | - |
| 1777656447 | 30° C | 35% | 1052 hPa | - | - | 27 W/m² | - |
| 1777655511 | 30.56° C | 34% | 1052 hPa | - | - | 35 W/m² | - |
| 1777654575 | 31.67° C | 32% | 1052.1 hPa | - | - | 35 W/m² | - |
| 1777653639 | 33.33° C | 31% | 1052 hPa | - | - | 52 W/m² | - |
| 1777652703 | 33.89° C | 30% | 1052 hPa | - | - | 63 W/m² | - |
| 1777651767 | 33.33° C | 30% | 1052.1 hPa | - | - | 61 W/m² | - |
| 1777650831 | 34.44° C | 29% | 1052.1 hPa | - | - | 70 W/m² | - |
* Rain since midnight (hover to see other rain measurements)
** Current wind speed in m/s (hover to see current wind gust speed)